Terminal Aerodrome Forecast
Issued by NWS

Home | Current Version | Previous Version | Text Only | Print | Product List | Glossary On
Versions: 1 2 3 4 5 6 7 8 9 10 11 12 13 14 15 16 17 18 19
603
FTUS43 KICT 122320
TAFSLN
TAF
KSLN 122320Z 1300/1324 03011KT P6SM BKN030
     FM130100 04010KT P6SM BKN040
     FM131100 09008KT P6SM BKN060
     FM131800 14012KT P6SM BKN050
     FM132300 14011KT P6SM SCT150=

USA.gov is the U.S. government's official web portal to all federal, state and local government web resources and services.